Time;durP1;ratioP1;P1;durP2;ratioP2;P2;SDS_P1;SDS_P2;PMS_P1;PMS_P2;Temp;Humidity;BMP_temperature;BMP_pressure;BME280_temperature;BME280_humidity;BME280_pressure;Samples;Min_cycle;Max_cycle;Signal;HPM_P1;HPM_P2
2023/06/05 00:00:01;;;;;;;3.08;1.55;;;15.90;84.60;;;16.22;82.97;99662.25;4914649;29;20235;-77
2023/06/05 00:02:28;;;;;;;3.03;1.80;;;15.80;85.10;;;16.16;82.48;99649.06;4912367;29;20227;-77
2023/06/05 00:04:55;;;;;;;2.63;1.55;;;15.80;84.60;;;16.22;84.50;99684.47;4914753;29;20243;-77
2023/06/05 00:07:22;;;;;;;2.55;1.40;;;15.80;86.30;;;16.08;84.55;99669.72;4910615;29;20239;-76
2023/06/05 00:09:49;;;;;;;2.58;1.50;;;15.70;85.60;;;16.17;84.75;99686.38;4908390;29;20231;-76
2023/06/05 00:12:16;;;;;;;2.15;1.30;;;15.80;85.80;;;16.04;84.19;99673.38;4914517;29;20244;-76
2023/06/05 00:14:44;;;;;;;2.22;1.30;;;15.70;85.90;;;16.08;85.89;99705.28;4909005;29;20231;-76
2023/06/05 00:17:11;;;;;;;4.55;2.20;;;15.70;86.40;;;15.97;85.24;99680.66;4907003;29;20728;-77
2023/06/05 00:19:38;;;;;;;4.30;2.15;;;15.60;85.70;;;15.93;84.32;99665.66;4912793;29;20254;-76
2023/06/05 00:22:05;;;;;;;3.90;1.98;;;15.60;85.10;;;16.02;85.21;99689.44;4912116;29;20242;-77
2023/06/05 00:24:32;;;;;;;3.65;1.90;;;15.60;86.60;;;15.94;83.73;99668.28;4909950;29;20324;-77
2023/06/05 00:26:59;;;;;;;3.10;1.63;;;15.60;85.10;;;15.95;84.55;99675.38;4911193;29;20243;-77
2023/06/05 00:29:26;;;;;;;2.95;1.55;;;15.60;85.60;;;15.93;85.92;99697.66;4912188;29;20238;-76
2023/06/05 00:31:54;;;;;;;5.15;2.40;;;15.50;83.80;;;15.88;82.77;99644.44;4913155;29;20231;-77
2023/06/05 00:34:21;;;;;;;2.47;1.35;;;15.50;84.30;;;15.92;83.51;99664.78;4913506;29;20235;-76
2023/06/05 00:36:51;;;;;;;2.33;1.40;;;15.50;85.20;;;15.92;82.86;99655.91;4914491;29;20247;-77
2023/06/05 00:39:18;;;;;;;3.10;1.55;;;15.50;84.70;;;15.89;84.91;99669.31;4911925;29;20262;-76
2023/06/05 00:41:46;;;;;;;4.55;2.05;;;15.50;85.70;;;15.84;84.30;99668.56;4911894;29;20231;-77
2023/06/05 00:44:13;;;;;;;4.22;2.05;;;15.50;85.30;;;15.83;84.43;99678.34;4913921;29;20239;-77
2023/06/05 00:46:41;;;;;;;4.20;2.50;;;15.50;85.60;;;15.70;84.63;99660.00;4903950;29;20240;-76
2023/06/05 00:49:09;;;;;;;3.15;1.52;;;15.40;85.10;;;15.77;84.75;99672.28;4909739;29;20242;-76
2023/06/05 00:51:36;;;;;;;5.55;2.50;;;15.40;85.40;;;15.73;83.74;99660.81;4912114;29;20254;-76
2023/06/05 00:54:05;;;;;;;2.50;1.40;;;15.40;84.60;;;15.63;84.66;99659.28;4911916;29;20258;-76
2023/06/05 00:56:35;;;;;;;3.72;1.90;;;15.30;85.40;;;15.71;83.92;99662.63;4912209;29;20239;-76
2023/06/05 00:59:03;;;;;;;4.07;1.92;;;15.30;85.20;;;15.69;84.31;99667.13;4908796;29;21687;-76
2023/06/05 01:01:32;;;;;;;3.40;1.80;;;15.30;85.40;;;15.67;84.17;99676.97;4907392;29;20250;-77
2023/06/05 01:04:00;;;;;;;3.55;1.77;;;15.30;85.00;;;15.59;84.16;99665.56;4907964;29;20239;-76
2023/06/05 01:06:30;;;;;;;3.42;1.90;;;15.30;85.10;;;15.57;85.00;99662.03;4907037;29;20566;-77
2023/06/05 01:08:59;;;;;;;3.33;1.50;;;15.20;85.60;;;15.54;85.51;99670.09;4909292;29;20302;-76
2023/06/05 01:11:58;;;;;;;3.42;1.70;;;15.20;86.30;;;15.55;86.54;99678.06;4911074;29;20239;-76
2023/06/05 01:14:30;;;;;;;3.33;1.83;;;15.20;85.80;;;15.55;87.18;99704.69;4912458;29;20243;-77
2023/06/05 01:17:03;;;;;;;3.92;1.85;;;15.20;86.70;;;15.36;87.75;99684.72;4910646;29;20239;-77
2023/06/05 01:19:32;;;;;;;2.90;1.60;;;15.10;86.90;;;15.34;87.58;99684.75;4909870;29;20250;-77
2023/06/05 01:22:00;;;;;;;4.90;2.65;;;15.00;86.50;;;15.36;87.97;99698.03;4907296;29;20245;-76
2023/06/05 01:24:28;;;;;;;2.92;1.42;;;15.00;86.60;;;15.30;87.93;99690.19;4912515;29;20243;-77
2023/06/05 01:27:00;;;;;;;3.15;1.65;;;15.00;86.50;;;15.31;89.62;99722.13;4913226;29;20242;-77
2023/06/05 01:29:58;;;;;;;3.13;1.85;;;15.00;88.70;;;15.18;88.37;99698.44;4910041;29;20330;-76
2023/06/05 01:33:05;;;;;;;3.78;1.90;;;14.90;86.50;;;15.14;88.53;99680.78;4911159;29;20239;-76
2023/06/05 01:35:34;;;;;;;3.20;1.67;;;14.80;86.30;;;15.14;89.11;99699.41;4910632;29;20262;-76
2023/06/05 01:38:05;;;;;;;3.78;1.90;;;14.80;87.30;;;15.19;88.23;99692.19;4906705;29;20238;-77
2023/06/05 01:40:34;;;;;;;2.25;1.30;;;14.80;87.00;;;15.14;87.17;99683.44;4912131;29;20235;-76
2023/06/05 01:43:05;;;;;;;3.28;1.77;;;14.80;86.10;;;15.07;89.95;99717.31;4911542;29;20231;-76
2023/06/05 01:45:33;;;;;;;9.18;4.57;;;14.80;88.20;;;15.04;89.01;99712.03;4900446;29;20234;-76
2023/06/05 01:48:00;;;;;;;3.60;1.63;;;14.70;86.50;;;15.04;91.49;99751.97;4903442;29;20235;-77
2023/06/05 01:50:27;;;;;;;3.83;2.05;;;14.70;88.20;;;14.99;89.40;99717.47;4907510;29;20250;-76
2023/06/05 01:52:55;;;;;;;3.38;1.65;;;14.60;86.80;;;14.98;90.11;99730.81;4910747;29;20231;-76
2023/06/05 01:55:26;;;;;;;2.53;1.45;;;14.60;87.50;;;14.91;89.19;99708.75;4912739;29;20338;-77
2023/06/05 01:57:54;;;;;;;3.80;2.00;;;14.60;86.80;;;14.88;89.98;99706.16;4911767;29;20659;-76
2023/06/05 02:00:21;;;;;;;2.13;1.25;;;14.50;87.30;;;14.88;89.60;99716.81;4908084;29;20246;-77
2023/06/05 02:02:50;;;;;;;2.63;1.50;;;14.50;87.30;;;14.97;91.31;99758.34;4910907;29;20234;-77
2023/06/05 02:05:20;;;;;;;3.45;1.77;;;14.60;88.40;;;14.76;91.86;99740.13;4911482;29;20247;-76
2023/06/05 02:07:53;;;;;;;2.78;1.48;;;14.50;87.90;;;14.77;92.17;99745.41;4911157;29;20719;-77
2023/06/05 02:10:21;;;;;;;2.15;1.23;;;14.40;88.10;;;14.82;91.81;99762.19;4912218;29;20259;-76
2023/06/05 02:12:48;;;;;;;3.65;1.92;;;14.50;87.80;;;14.78;92.58;99759.59;4911610;29;20250;-76
2023/06/05 02:15:16;;;;;;;2.53;1.50;;;14.40;88.20;;;14.76;91.77;99742.78;4910868;29;20239;-77
2023/06/05 02:17:53;;;;;;;2.28;1.40;;;14.40;88.10;;;14.64;91.00;99715.50;4908329;29;20234;-76
2023/06/05 02:20:25;;;;;;;2.42;1.52;;;14.30;87.30;;;14.75;93.47;99778.28;4911273;29;20245;-76
2023/06/05 02:22:54;;;;;;;3.22;1.58;;;14.30;88.70;;;14.67;90.75;99738.50;4910186;29;20235;-77
2023/06/05 02:25:25;;;;;;;2.13;1.30;;;14.30;87.00;;;14.69;91.98;99763.31;4911319;29;20248;-76
2023/06/05 02:27:54;;;;;;;2.60;1.60;;;14.30;87.90;;;14.64;90.67;99744.75;4905196;29;20258;-76
2023/06/05 02:30:22;;;;;;;3.17;1.77;;;14.30;86.80;;;14.66;93.47;99777.56;4911111;29;20239;-77
2023/06/05 02:32:56;;;;;;;2.30;1.40;;;14.20;88.40;;;14.68;93.14;99765.09;4909064;29;20706;-76
2023/06/05 02:35:24;;;;;;;2.40;1.52;;;14.20;88.20;;;14.60;91.19;99755.50;4914797;29;20325;-76
2023/06/05 02:37:52;;;;;;;2.95;1.60;;;14.20;87.20;;;14.48;92.43;99751.28;4914620;29;20329;-76
2023/06/05 02:40:19;;;;;;;2.63;2.00;;;14.20;88.40;;;14.54;92.30;99768.91;4913993;29;20321;-77
2023/06/05 02:42:46;;;;;;;2.22;1.25;;;14.20;87.90;;;14.54;91.18;99753.81;4914857;29;20234;-77
2023/06/05 02:45:13;;;;;;;2.72;1.58;;;14.20;87.30;;;14.53;91.49;99753.84;4907615;29;20334;-76
2023/06/05 02:47:40;;;;;;;3.45;1.88;;;14.20;87.60;;;14.43;91.87;99754.91;4906801;29;20708;-76
2023/06/05 02:50:08;;;;;;;2.58;1.58;;;14.10;88.00;;;14.54;92.28;99767.13;4914380;29;20239;-76
2023/06/05 02:52:38;;;;;;;2.25;1.30;;;14.20;88.20;;;14.49;89.63;99744.16;4912644;29;20235;-77
2023/06/05 02:55:07;;;;;;;3.90;2.20;;;14.10;86.70;;;14.48;92.86;99777.00;4910854;29;20245;-76
2023/06/05 02:57:41;;;;;;;3.10;1.60;;;14.10;88.60;;;14.43;92.43;99763.78;4914236;29;20258;-78
2023/06/05 03:00:16;;;;;;;1.90;1.40;;;14.10;88.20;;;14.34;91.09;99746.16;4913634;29;20239;-77
2023/06/05 03:02:51;;;;;;;4.45;2.35;;;14.00;87.00;;;14.40;91.55;99755.81;4910389;29;20242;-76
2023/06/05 03:05:18;;;;;;;2.40;1.50;;;14.00;87.60;;;14.35;92.44;99760.34;4911142;29;20242;-77
2023/06/05 03:07:45;;;;;;;2.80;1.45;;;14.00;88.10;;;14.30;94.33;99783.44;4910509;29;20246;-77
2023/06/05 03:10:12;;;;;;;4.45;2.20;;;14.00;89.30;;;14.23;92.63;99756.06;4913787;29;20246;-77
2023/06/05 03:12:40;;;;;;;2.72;1.50;;;13.90;87.80;;;14.21;94.43;99780.94;4909759;29;20231;-77
2023/06/05 03:15:10;;;;;;;3.08;1.60;;;13.90;88.70;;;14.30;93.94;99802.97;4908212;29;20234;-77
2023/06/05 03:17:37;;;;;;;4.47;2.25;;;13.90;88.60;;;14.24;93.58;99788.84;4909749;29;20230;-76
2023/06/05 03:20:09;;;;;;;3.55;2.00;;;13.90;88.00;;;14.22;92.01;99777.38;4917197;29;20654;-77
2023/06/05 03:22:36;;;;;;;2.53;1.40;;;13.90;87.30;;;14.22;93.67;99802.19;4913181;29;20239;-76
2023/06/05 03:25:04;;;;;;;11.98;2.35;;;13.80;88.40;;;14.13;92.65;99783.72;4913350;29;20683;-76
2023/06/05 03:27:31;;;;;;;3.05;1.85;;;13.80;87.70;;;14.13;94.23;99796.13;4908955;29;20231;-77
2023/06/05 03:29:59;;;;;;;2.83;1.52;;;13.80;88.60;;;14.02;95.54;99799.81;4913680;29;20230;-77
2023/06/05 03:32:26;;;;;;;3.00;1.80;;;13.70;89.30;;;13.99;97.05;99817.59;4912123;29;20242;-77
2023/06/05 03:34:53;;;;;;;3.70;1.73;;;13.60;90.00;;;14.03;96.71;99832.63;4911018;29;20261;-76
2023/06/05 03:37:20;;;;;;;3.33;1.80;;;13.60;89.70;;;13.98;97.06;99831.78;4912608;29;20238;-76
2023/06/05 03:39:47;;;;;;;2.67;1.58;;;13.60;89.80;;;13.94;95.20;99823.00;4923160;29;20304;-77
2023/06/05 03:42:14;;;;;;;2.20;1.30;;;13.60;88.60;;;13.94;95.78;99833.63;4912252;29;20251;-77
2023/06/05 03:44:41;;;;;;;3.13;1.85;;;13.60;89.10;;;13.95;95.62;99835.38;4912589;29;20251;-77
2023/06/05 03:47:08;;;;;;;2.70;1.63;;;13.60;88.80;;;13.87;96.04;99829.28;4902768;29;20239;-77
2023/06/05 03:49:36;;;;;;;2.53;1.50;;;13.60;89.20;;;13.90;95.33;99831.03;4908227;29;20270;-76
2023/06/05 03:52:03;;;;;;;2.70;1.60;;;13.60;88.70;;;13.99;95.17;99844.19;4908613;29;20250;-76
2023/06/05 03:54:32;;;;;;;2.22;1.30;;;13.60;88.80;;;13.97;95.30;99848.66;4912548;29;20302;-77
2023/06/05 03:57:00;;;;;;;2.80;1.55;;;13.60;89.00;;;13.92;95.29;99846.06;4910085;29;20318;-76
2023/06/05 03:59:28;;;;;;;2.05;1.25;;;13.60;89.00;;;13.93;94.34;99837.19;4913886;29;20246;-77
2023/06/05 04:01:59;;;;;;;4.07;2.08;;;13.60;88.30;;;13.95;94.38;99840.69;4909228;29;20238;-76
2023/06/05 04:04:26;;;;;;;2.85;1.58;;;13.60;88.70;;;13.94;94.84;99849.56;4911323;29;20239;-77
2023/06/05 04:06:56;;;;;;;4.72;2.28;;;13.60;88.60;;;13.92;94.67;99845.19;4911114;29;20238;-77
2023/06/05 04:09:24;;;;;;;1.90;1.23;;;13.60;88.80;;;13.96;94.62;99854.88;4913255;29;20243;-77
2023/06/05 04:11:51;;;;;;;5.05;2.40;;;13.60;88.90;;;13.90;97.75;99884.19;4913788;29;20670;-77
2023/06/05 04:14:18;;;;;;;2.75;1.50;;;13.60;90.30;;;13.94;96.27;99884.13;4911665;29;20242;-77
2023/06/05 04:16:45;;;;;;;3.67;1.83;;;13.60;89.40;;;14.04;96.40;99908.81;4926646;29;20232;-77
2023/06/05 04:19:12;;;;;;;3.25;1.58;;;13.60;89.70;;;13.96;96.06;99889.41;4909783;29;20323;-77
2023/06/05 04:21:41;;;;;;;4.25;2.00;;;13.60;89.10;;;14.03;95.16;99891.09;4912415;29;20269;-77
2023/06/05 04:24:11;;;;;;;5.95;2.60;;;13.70;88.90;;;14.16;95.24;99921.06;4908178;29;20235;-78
2023/06/05 04:26:41;;;;;;;2.78;1.50;;;13.70;89.10;;;14.14;94.43;99902.47;4912149;29;20251;-76
2023/06/05 04:29:18;;;;;;;2.65;1.38;;;13.80;88.70;;;14.14;95.43;99909.56;4911956;29;20270;-76
2023/06/05 04:31:47;;;;;;;3.85;1.95;;;13.80;89.30;;;14.19;96.92;99950.25;4911548;29;20266;-76
2023/06/05 04:34:18;;;;;;;3.08;1.60;;;13.80;90.00;;;14.23;95.45;99944.88;4912834;29;20273;-76
2023/06/05 04:36:49;;;;;;;3.03;1.52;;;13.90;88.70;;;14.22;95.86;99951.09;4910760;29;20313;-76
2023/06/05 04:39:18;;;;;;;3.22;1.80;;;13.90;89.70;;;14.22;95.75;99940.47;4913961;29;20321;-76
2023/06/05 04:41:46;;;;;;;1.90;1.25;;;13.90;89.40;;;14.30;96.02;99973.19;4912976;29;20238;-75
2023/06/05 04:44:29;;;;;;;2.50;1.38;;;13.90;89.10;;;14.40;95.41;99964.19;4916283;29;20242;-76
2023/06/05 04:46:57;;;;;;;2.22;1.48;;;14.00;89.50;;;14.44;94.91;99958.84;4912709;29;20235;-75
2023/06/05 04:49:24;;;;;;;3.25;1.80;;;14.10;89.40;;;14.43;95.93;99978.38;4910225;29;20243;-77
2023/06/05 04:51:53;;;;;;;1.75;1.25;;;14.10;89.60;;;14.53;95.04;99977.34;4997133;23;20239;-81
2023/06/05 04:54:20;;;;;;;2.30;1.48;;;14.20;89.40;;;14.60;95.02;99994.97;4892071;29;20247;-80
2023/06/05 04:56:49;;;;;;;2.50;1.67;;;14.20;89.10;;;14.63;94.64;100000.25;4895492;29;20304;-80
2023/06/05 04:59:16;;;;;;;2.50;1.42;;;14.30;89.30;;;14.79;93.76;100017.75;4890237;29;20244;-79
2023/06/05 05:01:44;;;;;;;2.47;1.52;;;14.40;88.80;;;14.84;93.30;100015.91;4890889;29;20232;-79
2023/06/05 05:04:11;;;;;;;2.58;1.65;;;14.50;89.00;;;14.88;92.66;100008.75;4896378;29;20274;-79
2023/06/05 05:06:40;;;;;;;2.13;1.48;;;14.50;88.50;;;14.93;93.48;100031.75;4898132;29;20243;-79
2023/06/05 05:09:08;;;;;;;1.73;1.20;;;14.50;89.20;;;14.96;92.72;100014.84;4897576;29;20251;-79
2023/06/05 05:11:36;;;;;;;1.80;1.20;;;14.60;88.70;;;15.08;92.55;100027.09;4897343;29;20299;-78
2023/06/05 05:14:03;;;;;;;2.90;1.80;;;14.70;88.70;;;15.12;93.70;100051.00;4900410;29;20231;-80
2023/06/05 05:16:30;;;;;;;2.25;1.52;;;14.70;89.20;;;15.22;92.13;100038.41;4904760;29;20243;-79
2023/06/05 05:18:58;;;;;;;2.00;1.35;;;14.80;88.50;;;15.29;91.09;100032.06;4900520;29;20252;-80
2023/06/05 05:21:25;;;;;;;2.63;1.60;;;14.90;88.30;;;15.33;91.22;100023.13;4898002;29;20239;-79
2023/06/05 05:23:52;;;;;;;2.38;1.52;;;15.00;88.50;;;15.41;89.60;100028.31;4894655;29;20239;-78
2023/06/05 05:26:20;;;;;;;3.20;2.00;;;15.00;87.50;;;15.49;89.35;100021.94;4897040;29;20238;-78
2023/06/05 05:28:47;;;;;;;2.45;1.60;;;15.10;87.70;;;15.57;89.78;100033.38;4897197;29;20236;-78
2023/06/05 05:31:15;;;;;;;2.38;1.55;;;15.20;88.20;;;15.61;89.53;100037.78;4897057;29;20247;-77
2023/06/05 05:33:43;;;;;;;2.25;1.42;;;15.20;87.80;;;15.67;89.70;100037.69;4903258;29;20746;-79
2023/06/05 05:36:10;;;;;;;2.13;1.42;;;15.30;88.00;;;15.72;88.23;100026.06;4896051;29;20248;-79
2023/06/05 05:38:37;;;;;;;1.88;1.30;;;15.30;87.40;;;15.77;87.68;100006.41;4899998;29;20227;-79
2023/06/05 05:41:04;;;;;;;2.90;1.58;;;15.40;87.40;;;15.82;86.79;100004.53;4896999;29;20239;-77
2023/06/05 05:43:31;;;;;;;1.73;1.30;;;15.40;86.90;;;15.97;89.07;100038.91;4896264;29;20251;-78
2023/06/05 05:45:58;;;;;;;2.00;1.33;;;15.50;89.10;;;16.04;88.48;100046.78;4895807;29;20244;-78
2023/06/05 05:48:25;;;;;;;2.00;1.40;;;15.60;87.90;;;16.13;87.40;100036.81;4896385;29;20314;-79
2023/06/05 05:50:52;;;;;;;1.63;1.17;;;15.70;87.40;;;16.23;85.79;100025.03;4888877;29;20236;-78
2023/06/05 05:53:20;;;;;;;1.30;1.00;;;15.80;86.90;;;16.22;85.93;100020.59;4897912;29;20251;-78
2023/06/05 05:55:47;;;;;;;1.20;1.00;;;15.80;87.10;;;16.35;86.06;100020.34;4900745;29;20239;-78
2023/06/05 05:58:15;;;;;;;1.35;1.10;;;15.90;87.40;;;16.41;84.81;100006.88;4878728;29;20239;-78
2023/06/05 06:00:42;;;;;;;2.08;1.33;;;16.00;86.80;;;16.43;83.63;99997.06;4901125;29;20234;-78
2023/06/05 06:03:09;;;;;;;1.13;0.90;;;16.00;86.20;;;16.42;82.66;99972.16;4900180;29;20321;-79
2023/06/05 06:05:37;;;;;;;1.48;1.10;;;16.00;85.50;;;16.61;82.44;99975.28;4897454;29;20254;-79
2023/06/05 06:08:04;;;;;;;1.52;1.10;;;16.20;85.90;;;16.64;84.36;100001.91;4897211;29;20243;-79
2023/06/05 06:10:33;;;;;;;1.58;1.20;;;16.20;86.60;;;16.83;82.28;99986.38;4902883;29;20235;-79
2023/06/05 06:13:00;;;;;;;1.58;0.98;;;16.40;85.90;;;16.88;84.38;100001.38;4897287;29;20235;-79
2023/06/05 06:15:27;;;;;;;1.30;0.90;;;16.40;87.10;;;17.02;85.55;100037.59;4898861;29;20349;-80
2023/06/05 06:17:56;;;;;;;1.73;1.20;;;16.60;87.40;;;17.03;84.34;100023.34;4891802;29;20315;-79
2023/06/05 06:20:25;;;;;;;1.70;1.25;;;16.60;86.90;;;17.16;85.41;100039.03;4905701;29;20243;-79
2023/06/05 06:22:52;;;;;;;1.40;1.08;;;16.70;87.40;;;17.25;83.84;100019.22;4899198;29;20235;-79
2023/06/05 06:25:21;;;;;;;1.77;1.20;;;16.80;87.00;;;17.49;86.18;100074.75;4900678;29;20254;-77
2023/06/05 06:27:49;;;;;;;2.33;1.85;;;17.00;88.70;;;17.49;85.36;100052.47;4892823;29;20274;-77
2023/06/05 06:30:16;;;;;;;1.77;1.30;;;17.10;87.80;;;17.46;83.48;100023.16;4896623;29;20672;-78
2023/06/05 06:32:43;;;;;;;1.73;1.10;;;17.10;86.60;;;17.67;87.75;100077.91;4892651;29;20242;-78
2023/06/05 06:35:13;;;;;;;1.88;1.17;;;17.20;89.60;;;17.89;85.09;100073.75;4895168;29;20270;-78
2023/06/05 06:37:41;;;;;;;2.60;1.65;;;17.40;88.00;;;17.98;83.71;100059.25;4893865;29;20255;-78
2023/06/05 06:40:09;;;;;;;2.00;1.30;;;17.50;87.40;;;18.06;80.34;100027.81;4894963;29;20251;-78
2023/06/05 06:42:37;;;;;;;1.88;1.15;;;17.60;85.50;;;18.08;79.54;100008.09;4894305;29;20248;-79
2023/06/05 06:45:05;;;;;;;2.90;1.70;;;17.60;85.60;;;17.96;81.04;100000.44;4896841;29;20248;-78
2023/06/05 06:47:32;;;;;;;2.72;1.67;;;17.60;86.30;;;18.07;82.36;100026.88;4896948;29;20240;-78
2023/06/05 06:50:01;;;;;;;2.42;1.30;;;17.70;86.90;;;18.21;81.12;100017.56;4896913;29;20278;-79
2023/06/05 06:52:28;;;;;;;2.63;1.38;;;17.80;86.60;;;18.24;81.47;100019.28;4896840;29;20255;-78
2023/06/05 06:54:56;;;;;;;2.45;1.40;;;17.80;86.50;;;18.43;81.04;100031.22;4901877;29;20239;-79
2023/06/05 06:57:23;;;;;;;2.60;1.52;;;18.00;86.90;;;18.65;82.46;100066.31;4897090;29;20247;-78
2023/06/05 06:59:53;;;;;;;1.95;1.20;;;18.20;87.40;;;18.79;78.89;100021.22;4895289;29;20240;-79
2023/06/05 07:02:25;;;;;;;2.67;1.42;;;18.40;85.70;;;19.00;79.01;100011.63;4894923;29;20560;-78
2023/06/05 07:04:57;;;;;;;2.42;1.33;;;18.50;86.40;;;19.20;78.68;100016.34;4900993;29;20299;-79
2023/06/05 07:07:24;;;;;;;2.88;1.50;;;18.70;86.10;;;19.19;78.66;100006.53;4896787;29;20248;-79
2023/06/05 07:09:52;;;;;;;2.60;1.40;;;18.80;86.60;;;19.60;76.44;100012.38;4895848;29;20250;-79
2023/06/05 07:12:20;;;;;;;2.25;1.35;;;19.00;85.20;;;19.41;74.42;99943.22;4895965;29;20235;-79
2023/06/05 07:14:48;;;;;;;2.47;1.48;;;19.00;84.20;;;19.43;73.73;99919.91;4896432;29;20247;-78
2023/06/05 07:17:15;;;;;;;2.03;1.23;;;19.10;83.80;;;19.60;71.69;99891.66;4895744;29;20255;-79
2023/06/05 07:19:42;;;;;;;4.70;2.33;;;19.10;83.10;;;19.39;70.35;99835.13;4904010;29;20242;-80
2023/06/05 07:22:10;;;;;;;4.93;2.10;;;19.10;82.40;;;19.62;68.24;99820.06;4900304;29;20744;-80
2023/06/05 07:24:38;;;;;;;3.60;1.70;;;19.20;81.60;;;19.95;69.33;99850.97;4904850;29;20263;-79
2023/06/05 07:27:08;;;;;;;4.22;2.17;;;19.40;82.60;;;19.85;70.21;99841.53;4901451;29;20238;-79
2023/06/05 07:29:35;;;;;;;3.20;1.70;;;19.50;83.10;;;20.14;67.50;99827.84;4903011;29;20311;-80
2023/06/05 07:32:06;;;;;;;7.13;3.53;;;19.70;81.40;;;20.28;69.14;99837.16;4897755;29;20261;-83
2023/06/05 07:34:36;;;;;;;3.40;1.90;;;19.90;83.10;;;20.30;68.78;99824.53;4899206;29;20315;-80
2023/06/05 07:37:04;;;;;;;2.85;1.50;;;19.80;82.10;;;20.00;65.38;99698.69;4899583;29;20247;-78
2023/06/05 07:39:31;;;;;;;2.80;1.55;;;19.80;80.30;;;20.42;69.27;99807.97;4901108;29;20251;-79
2023/06/05 07:41:58;;;;;;;3.42;1.83;;;19.90;83.20;;;20.68;65.23;99770.13;4899342;29;20236;-80
2023/06/05 07:44:25;;;;;;;2.72;1.45;;;20.20;80.40;;;20.45;62.81;99673.56;4903061;29;20243;-79
2023/06/05 07:46:52;;;;;;;3.70;1.95;;;20.10;79.70;;;20.60;61.87;99656.75;4903376;29;20318;-79
2023/06/05 07:49:19;;;;;;;2.30;1.45;;;20.10;79.30;;;20.68;62.92;99669.84;4906206;29;20250;-81
2023/06/05 07:51:48;;;;;;;3.42;1.95;;;20.20;80.10;;;20.60;62.55;99626.34;4898127;29;20251;-81
2023/06/05 07:54:16;;;;;;;2.38;1.30;;;20.20;79.80;;;21.00;62.77;99684.56;4897742;29;20254;-78
2023/06/05 07:56:43;;;;;;;2.25;1.35;;;20.60;79.90;;;21.16;66.89;99730.44;4901336;29;20254;-79
2023/06/05 07:59:14;;;;;;;3.42;2.08;;;20.70;83.10;;;21.29;66.60;99729.84;4900452;29;20258;-79
2023/06/05 08:01:42;;;;;;;2.13;1.25;;;20.90;82.60;;;21.39;64.39;99709.66;4900080;29;20231;-78
2023/06/05 08:04:12;;;;;;;3.08;1.67;;;21.00;80.60;;;21.49;62.84;99676.94;4898900;29;20620;-78
2023/06/05 08:06:40;;;;;;;2.08;1.20;;;21.10;79.90;;;21.69;59.73;99641.88;4905423;29;20231;-79
2023/06/05 08:09:09;;;;;;;2.47;1.20;;;21.30;78.40;;;21.40;58.43;99524.94;4902545;29;20238;-78
2023/06/05 08:11:37;;;;;;;2.17;1.20;;;21.00;77.80;;;21.81;62.79;99632.31;4896960;29;20247;-79
2023/06/05 08:14:08;;;;;;;2.42;1.27;;;21.30;81.10;;;21.73;58.40;99547.44;4897612;29;20239;-79
2023/06/05 08:16:36;;;;;;;2.00;1.30;;;21.40;77.80;;;21.90;58.17;99535.81;4898195;29;20243;-78
2023/06/05 08:19:03;;;;;;;2.42;1.25;;;21.50;77.70;;;22.24;57.20;99548.47;4897623;29;20704;-79
2023/06/05 08:21:31;;;;;;;2.00;1.20;;;21.70;77.90;;;22.10;56.95;99482.78;4896165;29;20235;-79
2023/06/05 08:23:58;;;;;;;2.17;1.27;;;21.60;77.80;;;22.30;58.84;99549.94;4902863;29;20710;-79
2023/06/05 08:26:25;;;;;;;1.88;1.17;;;21.90;78.20;;;22.20;54.93;99439.16;4898142;29;20247;-79
2023/06/05 08:28:53;;;;;;;1.70;1.10;;;22.00;75.20;;;22.19;54.36;99388.06;4897799;29;20397;-78
2023/06/05 08:31:20;;;;;;;2.33;1.30;;;21.90;75.60;;;22.37;53.83;99386.19;4896297;29;20241;-78
2023/06/05 08:33:47;;;;;;;2.17;1.23;;;21.90;75.30;;;22.46;53.29;99364.13;4898166;29;20325;-79
2023/06/05 08:36:16;;;;;;;1.60;1.10;;;22.10;74.70;;;22.11;53.23;99285.31;4895486;29;20239;-79
2023/06/05 08:38:44;;;;;;;1.88;1.20;;;21.80;75.20;;;22.90;55.29;99434.38;4898586;29;20258;-79
2023/06/05 08:41:16;;;;;;;2.03;1.15;;;22.10;77.60;;;22.44;51.72;99247.50;4895802;29;20239;-79
2023/06/05 08:43:46;;;;;;;2.05;1.20;;;22.30;73.90;;;23.09;56.28;99444.97;4897095;29;20346;-78
2023/06/05 08:46:15;;;;;;;1.48;0.90;;;22.50;78.10;;;23.34;55.09;99425.53;4896903;29;20243;-79
2023/06/05 08:48:47;;;;;;;2.17;1.23;;;22.90;77.30;;;23.43;53.45;99400.72;4896034;29;20688;-79
2023/06/05 08:51:16;;;;;;;2.05;1.40;;;23.00;75.80;;;23.49;54.22;99400.34;4888325;29;20251;-79
2023/06/05 08:54:04;;;;;;;2.45;1.35;;;23.00;76.50;;;23.52;54.41;99386.69;4896073;29;20298;-79
2023/06/05 08:56:33;;;;;;;2.28;1.33;;;23.20;76.70;;;22.96;51.68;99219.22;4903952;29;20239;-78
2023/06/05 08:59:00;;;;;;;1.52;1.00;;;22.80;75.00;;;23.52;51.52;99289.53;4901521;29;20239;-79
2023/06/05 09:01:30;;;;;;;1.98;1.20;;;23.00;74.70;;;23.86;53.27;99358.50;4895084;29;20578;-79
2023/06/05 09:03:57;;;;;;;1.85;1.10;;;23.40;76.80;;;23.92;53.40;99352.72;4891102;29;20232;-79
2023/06/05 09:06:24;;;;;;;1.23;0.80;;;23.40;76.80;;;24.18;54.13;99397.00;4898097;29;20239;-79
2023/06/05 09:08:51;;;;;;;1.85;1.00;;;23.70;76.90;;;24.03;50.14;99268.31;4898812;29;20310;-78
2023/06/05 09:11:27;;;;;;;1.48;1.05;;;23.70;73.40;;;24.15;51.12;99271.09;4879800;29;20246;-81
2023/06/05 09:14:01;;;;;;;2.47;1.33;;;23.60;75.10;;;24.55;52.02;99334.22;4894761;29;20613;-81
2023/06/05 09:16:37;;;;;;;2.00;1.10;;;24.10;77.00;;;24.36;49.48;99224.75;4897974;29;20254;-80
2023/06/05 09:19:06;;;;;;;1.55;1.17;;;24.10;73.40;;;24.24;49.57;99161.56;4897932;29;20471;-83
2023/06/05 09:21:34;;;;;;;1.58;0.95;;;23.80;74.30;;;24.32;51.50;99207.88;4901046;29;20247;-84
2023/06/05 09:24:11;;;;;;;1.42;0.77;;;23.80;76.20;;;24.34;50.00;99170.81;4904343;29;20230;-84
2023/06/05 09:26:58;;;;;;;1.20;0.77;;;23.80;74.30;;;24.70;52.65;99280.97;4897885;29;20289;-83
2023/06/05 09:29:34;;;;;;;0.70;0.55;;;24.20;76.80;;;24.92;51.89;99276.84;4895479;29;20231;-84
2023/06/05 09:32:05;;;;;;;1.13;0.65;;;24.40;76.00;;;24.49;49.38;99125.66;4902404;29;20247;-84
2023/06/05 09:34:39;;;;;;;1.50;1.00;;;24.20;73.40;;;24.83;50.44;99202.63;4894431;29;20235;-84
2023/06/05 09:37:09;;;;;;;1.13;0.80;;;24.40;75.00;;;24.62;49.21;99090.56;4896879;29;20231;-82
2023/06/05 09:39:43;;;;;;;0.75;0.60;;;24.10;73.50;;;25.01;49.39;99155.41;4899794;29;20239;-80
2023/06/05 09:42:10;;;;;;;1.35;0.77;;;24.40;74.40;;;25.30;51.89;99261.56;4893294;29;20239;-81
2023/06/05 09:44:38;;;;;;;0.90;0.60;;;24.80;76.40;;;24.91;52.06;99177.78;4897935;29;20245;-82
2023/06/05 09:47:10;;;;;;;1.10;0.85;;;24.60;77.20;;;24.98;49.01;99115.06;4898476;29;20329;-82
2023/06/05 09:49:40;;;;;;;1.45;1.00;;;24.60;72.90;;;24.91;53.02;99170.53;4898649;29;20264;-80
2023/06/05 09:52:11;;;;;;;1.10;0.82;;;24.50;77.00;;;25.27;51.13;99190.56;4896726;29;20259;-79
2023/06/05 09:54:45;;;;;;;1.13;0.70;;;24.90;74.80;;;25.91;53.33;99307.81;4898846;29;20249;-79
2023/06/05 09:57:15;;;;;;;1.67;1.13;;;25.50;77.30;;;25.00;48.44;99034.69;4893499;29;20254;-79
2023/06/05 09:59:54;;;;;;;0.90;0.60;;;25.00;72.50;;;25.46;52.05;99172.91;4895071;29;20241;-79
2023/06/05 10:02:25;;;;;;;1.02;0.90;;;24.90;77.30;;;25.52;50.96;99163.47;4899025;29;20230;-79
2023/06/05 10:05:03;;;;;;;0.60;0.50;;;25.30;75.50;;;25.85;53.57;99252.25;4895853;29;20243;-80
2023/06/05 10:07:32;;;;;;;1.45;0.90;;;25.60;77.60;;;26.24;52.80;99283.72;4896239;29;20243;-81
2023/06/05 10:09:59;;;;;;;1.08;0.80;;;25.70;76.90;;;25.90;53.49;99214.00;4892271;29;20231;-80
2023/06/05 10:12:27;;;;;;;1.58;1.08;;;25.50;78.90;;;26.19;55.45;99304.88;4895824;29;20356;-81
2023/06/05 10:14:56;;;;;;;1.15;0.70;;;25.80;78.90;;;26.22;51.98;99211.66;4884216;29;20305;-81
2023/06/05 10:17:24;;;;;;;1.08;0.65;;;25.80;76.50;;;26.25;55.30;99290.88;4900576;29;20235;-81
2023/06/05 10:19:51;;;;;;;1.13;0.73;;;26.00;78.60;;;26.51;55.01;99290.81;4900584;29;20230;-82
2023/06/05 10:22:19;;;;;;;1.30;0.90;;;26.40;79.40;;;26.65;52.05;99249.97;4897915;29;20235;-81
2023/06/05 10:24:55;;;;;;;0.90;0.60;;;26.40;75.40;;;26.63;50.81;99200.41;4897735;29;20362;-81